Hauptseite
METAR-TAF:

METAR-TAF

Flughäfen :

Flughafen Innsbruck

Innsbruck, Österreich

Breite: 47-16N, Länge: 011-21E, Höhe: 581 m

Beobachtung

Neuester Wetterbericht von vor 18 Minuten, um 19:20 UTC
Wind 2 kt aus Nordwest
Temperatur 21°C
Luftfeuchtigkeit 78%
Luftdruck 1021 hPa
Sichtweite 10 km oder mehr
Aufgelockert bewölkt in der Höhe von 6000 ft

METAR: LOWI 061920Z 31002KT 9999 SCT060 21/17 Q1021 NOSIG

Zeit: 21:38 (19:38 UTC)

Prognose

Neuester Wetterbericht von vor 2 Stunden und 23 Minuten, um 17:15 UTC
Gültige Prognose vom 06 um 18 UTC bis 07 um 18 UTC
Wind 3 kt aus West
Sichtweite 10 km oder mehr
keine Wolken unter 1500 m und keine Kumulonimbus oder Gewitterwolken
Übergehend zu
vom 07 um 10 UTC bis 07 um 12 UTC
Wind 8 kt aus Ost

TAF: LOWI 061715Z 0618/0718 27003KT CAVOK TX30/0714Z TN15/0704Z BECMG 0710/0712 08008KT

Wetterbeobachtungen und Prognosen von mehr als 4000 Flughäfen (METAR und TAF Bericht).

Die verfügbaren Stationen werden durch gelbe und rote Markierungen auf der Karte dargestellt.

Führen Sie die Maus auf sie, um den Namen der Station zu sehen.

Darauf klicken, um die Beobachtung von Wetterbeobachtungen und Prognosen zu sehen.

Um die Karte zu ändern : klicken Sie auf den grünen Tasten mit einem schwarzen Kreuz Zum Vergrößern, auf den grünen Button mit einem Gedankenstrich zu verkleinern, oder auf die grünen Pfeile für benachbarte Karten.


METAR-TAF: